Accueil
METAR-TAF:

METAR-TAF

Aéroports :

Aérodrome de Touho

Touho, Nouvelle-Calédonie

latitude: 20-47-25S, longitude: 165-15-34E, altitude: 3 m

METAR: absent

Heure: 15:15 (04:15 UTC)

Prévision

Le bulletin a été fait il y a 11 heures et 15 minutes, à 17:00 UTC
Prévision valable du 10 à 18 UTC au 11 à 18 UTC
Vent 8 kt de ouest
Visibilité 10 km ou plus
Nuages fragmentés à une hauteur de 3000 ft
Temporairement
du 10 à 18 UTC au 10 à 21 UTC
Nuages fragmentés à une hauteur de 1400 ft
averses de pluie

TAF: NWWU 101700Z 1018/1118 28008KT 9999 BKN030 TEMPO 1018/1021 SHRA BKN014

Observations et prévisions météorologiques de plus de 4000 aéroports (messages METAR et TAF).

Les stations disponibles sont représentées par des disques jaunes et rouges sur la carte.

Passer la souris dessus pour voir le nom de la station.

Cliquer dessus pour voir les observations et prévisions météorologiques.

Pour changer de carte: cliquez sur les boutons verts avec une croix noire pour zoomer, sur le bouton vert avec un tiret pour effectuer un zoom arrière, ou sur les flèches vertes pour les cartes adjacentes.


METAR-TAF: